sensor_id;sensor_type;location;lat;lon;timestamp;pressure;altitude;pressure_sealevel;temperature;humidity
30873;BME280;17579;42.690;2.586;2024-01-27T00:00:16;98548.16;;;15.19;40.58
30873;BME280;17579;42.690;2.586;2024-01-27T00:02:42;98541.84;;;15.20;40.47
30873;BME280;17579;42.690;2.586;2024-01-27T00:05:11;98550.81;;;15.19;40.19
30873;BME280;17579;42.690;2.586;2024-01-27T00:07:37;98547.03;;;15.22;40.70
30873;BME280;17579;42.690;2.586;2024-01-27T00:10:09;98555.31;;;15.19;40.41
30873;BME280;17579;42.690;2.586;2024-01-27T00:12:36;98547.88;;;15.22;40.47
30873;BME280;17579;42.690;2.586;2024-01-27T00:15:07;98548.28;;;15.18;40.48
30873;BME280;17579;42.690;2.586;2024-01-27T00:17:56;98534.53;;;15.22;40.44
30873;BME280;17579;42.690;2.586;2024-01-27T00:20:22;98544.50;;;15.20;40.52
30873;BME280;17579;42.690;2.586;2024-01-27T00:23:08;98543.38;;;15.23;40.70
30873;BME280;17579;42.690;2.586;2024-01-27T00:25:39;98545.06;;;15.24;40.59
30873;BME280;17579;42.690;2.586;2024-01-27T00:28:10;98543.09;;;15.26;40.76
30873;BME280;17579;42.690;2.586;2024-01-27T00:30:50;98546.75;;;15.25;40.56
30873;BME280;17579;42.690;2.586;2024-01-27T00:33:21;98538.16;;;15.31;40.64
30873;BME280;17579;42.690;2.586;2024-01-27T00:36:39;98536.38;;;14.93;41.63
30873;BME280;17579;42.690;2.586;2024-01-27T00:39:11;98533.53;;;15.33;40.65
30873;BME280;17579;42.690;2.586;2024-01-27T00:41:49;98537.16;;;15.42;40.20
30873;BME280;17579;42.690;2.586;2024-01-27T00:44:17;98537.31;;;15.40;40.22
30873;BME280;17579;42.690;2.586;2024-01-27T00:46:43;98530.16;;;15.41;40.23
30873;BME280;17579;42.690;2.586;2024-01-27T00:49:08;98530.28;;;15.39;40.35
30873;BME280;17579;42.690;2.586;2024-01-27T00:51:34;98524.13;;;15.39;40.41
30873;BME280;17579;42.690;2.586;2024-01-27T00:54:22;98527.63;;;15.39;40.47
30873;BME280;17579;42.690;2.586;2024-01-27T00:56:50;98526.66;;;15.40;40.41
30873;BME280;17579;42.690;2.586;2024-01-27T00:59:25;98518.22;;;15.35;40.40
30873;BME280;17579;42.690;2.586;2024-01-27T01:02:08;98521.31;;;15.40;40.10
30873;BME280;17579;42.690;2.586;2024-01-27T01:04:41;98524.28;;;15.37;40.20
30873;BME280;17579;42.690;2.586;2024-01-27T01:07:08;98523.28;;;15.38;40.13
30873;BME280;17579;42.690;2.586;2024-01-27T01:09:48;98518.09;;;15.37;40.15
30873;BME280;17579;42.690;2.586;2024-01-27T01:12:14;98508.13;;;15.39;40.22
30873;BME280;17579;42.690;2.586;2024-01-27T01:14:51;98518.81;;;15.39;40.21
30873;BME280;17579;42.690;2.586;2024-01-27T01:17:17;98505.47;;;15.39;40.21
30873;BME280;17579;42.690;2.586;2024-01-27T01:19:45;98516.13;;;15.39;40.53
30873;BME280;17579;42.690;2.586;2024-01-27T01:22:10;98512.47;;;15.40;40.09
30873;BME280;17579;42.690;2.586;2024-01-27T01:24:42;98510.81;;;15.39;40.20
30873;BME280;17579;42.690;2.586;2024-01-27T01:27:13;98515.84;;;15.42;40.16
30873;BME280;17579;42.690;2.586;2024-01-27T01:29:42;98514.44;;;15.38;39.96
30873;BME280;17579;42.690;2.586;2024-01-27T01:32:07;98510.66;;;15.40;39.88
30873;BME280;17579;42.690;2.586;2024-01-27T01:34:36;98511.78;;;15.38;40.00
30873;BME280;17579;42.690;2.586;2024-01-27T01:37:05;98509.69;;;15.32;39.72
30873;BME280;17579;42.690;2.586;2024-01-27T01:39:36;98512.50;;;15.30;39.98
30873;BME280;17579;42.690;2.586;2024-01-27T01:42:02;98512.09;;;15.25;39.59
30873;BME280;17579;42.690;2.586;2024-01-27T01:44:32;98503.13;;;15.16;39.49
30873;BME280;17579;42.690;2.586;2024-01-27T01:47:03;98509.06;;;15.10;39.86
30873;BME280;17579;42.690;2.586;2024-01-27T01:49:29;98518.16;;;15.07;39.60
30873;BME280;17579;42.690;2.586;2024-01-27T01:52:10;98505.97;;;15.05;39.47
30873;BME280;17579;42.690;2.586;2024-01-27T01:54:47;98510.59;;;15.03;39.71
30873;BME280;17579;42.690;2.586;2024-01-27T01:57:22;98505.97;;;15.05;39.45
30873;BME280;17579;42.690;2.586;2024-01-27T01:59:51;98499.22;;;15.01;39.91
30873;BME280;17579;42.690;2.586;2024-01-27T02:02:27;98500.50;;;14.97;39.90
30873;BME280;17579;42.690;2.586;2024-01-27T02:04:52;98502.75;;;15.01;39.58
30873;BME280;17579;42.690;2.586;2024-01-27T02:07:47;98495.75;;;15.00;39.74
30873;BME280;17579;42.690;2.586;2024-01-27T02:10:17;98495.31;;;14.95;39.72
30873;BME280;17579;42.690;2.586;2024-01-27T02:12:49;98493.91;;;14.91;39.76
30873;BME280;17579;42.690;2.586;2024-01-27T02:15:23;98495.75;;;14.90;39.92
30873;BME280;17579;42.690;2.586;2024-01-27T02:17:51;98487.75;;;14.90;39.80
30873;BME280;17579;42.690;2.586;2024-01-27T02:20:17;98489.44;;;14.92;39.94
30873;BME280;17579;42.690;2.586;2024-01-27T02:22:55;98483.41;;;14.89;39.92
30873;BME280;17579;42.690;2.586;2024-01-27T02:25:30;98482.84;;;14.96;39.33
30873;BME280;17579;42.690;2.586;2024-01-27T02:27:56;98477.78;;;14.93;39.76
30873;BME280;17579;42.690;2.586;2024-01-27T02:30:22;98477.94;;;14.91;39.61
30873;BME280;17579;42.690;2.586;2024-01-27T02:33:07;98479.06;;;14.88;39.43
30873;BME280;17579;42.690;2.586;2024-01-27T02:35:33;98473.19;;;14.85;39.50
30873;BME280;17579;42.690;2.586;2024-01-27T02:38:13;98471.09;;;14.79;39.34
30873;BME280;17579;42.690;2.586;2024-01-27T02:40:38;98486.63;;;14.73;39.29
30873;BME280;17579;42.690;2.586;2024-01-27T02:43:06;98475.00;;;14.65;39.29
30873;BME280;17579;42.690;2.586;2024-01-27T02:45:34;98481.03;;;14.57;39.27
30873;BME280;17579;42.690;2.586;2024-01-27T02:48:06;98478.22;;;14.49;39.51
30873;BME280;17579;42.690;2.586;2024-01-27T02:50:32;98479.59;;;14.43;39.54
30873;BME280;17579;42.690;2.586;2024-01-27T02:53:06;98478.06;;;14.41;39.97
30873;BME280;17579;42.690;2.586;2024-01-27T02:55:35;98467.56;;;14.39;39.66
30873;BME280;17579;42.690;2.586;2024-01-27T02:58:07;98479.59;;;14.33;39.91
30873;BME280;17579;42.690;2.586;2024-01-27T03:00:43;98486.88;;;14.31;40.06
30873;BME280;17579;42.690;2.586;2024-01-27T03:03:14;98474.13;;;14.35;40.13
30873;BME280;17579;42.690;2.586;2024-01-27T03:05:45;98470.06;;;14.31;39.90
30873;BME280;17579;42.690;2.586;2024-01-27T03:08:29;98470.78;;;14.33;40.33
30873;BME280;17579;42.690;2.586;2024-01-27T03:10:55;98467.00;;;14.35;40.07
30873;BME280;17579;42.690;2.586;2024-01-27T03:13:30;98465.75;;;14.30;40.25
30873;BME280;17579;42.690;2.586;2024-01-27T03:15:58;98470.34;;;14.37;40.33
30873;BME280;17579;42.690;2.586;2024-01-27T03:18:32;98463.63;;;14.43;40.27
30873;BME280;17579;42.690;2.586;2024-01-27T03:21:06;98463.78;;;14.42;39.65
30873;BME280;17579;42.690;2.586;2024-01-27T03:23:32;98471.22;;;14.38;40.11
30873;BME280;17579;42.690;2.586;2024-01-27T03:25:58;98467.84;;;14.36;40.13
30873;BME280;17579;42.690;2.586;2024-01-27T03:28:25;98468.56;;;14.38;40.12
30873;BME280;17579;42.690;2.586;2024-01-27T03:30:51;98462.50;;;14.36;40.12
30873;BME280;17579;42.690;2.586;2024-01-27T03:33:17;98458.59;;;14.30;39.68
30873;BME280;17579;42.690;2.586;2024-01-27T03:35:45;98464.75;;;14.31;39.97
30873;BME280;17579;42.690;2.586;2024-01-27T03:38:10;98464.75;;;14.31;40.35
30873;BME280;17579;42.690;2.586;2024-01-27T03:40:42;98463.78;;;14.32;40.16
30873;BME280;17579;42.690;2.586;2024-01-27T03:43:10;98462.22;;;14.39;40.09
30873;BME280;17579;42.690;2.586;2024-01-27T03:45:45;98457.47;;;14.43;40.17
30873;BME280;17579;42.690;2.586;2024-01-27T03:48:18;98454.69;;;14.44;40.22
30873;BME280;17579;42.690;2.586;2024-01-27T03:51:00;98447.97;;;14.50;40.07
30873;BME280;17579;42.690;2.586;2024-01-27T03:53:26;98448.09;;;14.48;39.74
30873;BME280;17579;42.690;2.586;2024-01-27T03:55:56;98451.75;;;14.47;40.08
30873;BME280;17579;42.690;2.586;2024-01-27T03:58:25;98451.59;;;14.49;40.04
30873;BME280;17579;42.690;2.586;2024-01-27T04:00:51;98456.09;;;14.48;39.90
30873;BME280;17579;42.690;2.586;2024-01-27T04:03:47;98447.25;;;14.48;39.85
30873;BME280;17579;42.690;2.586;2024-01-27T04:06:37;98449.06;;;14.47;39.64
30873;BME280;17579;42.690;2.586;2024-01-27T04:09:03;98440.94;;;14.39;39.72
30873;BME280;17579;42.690;2.586;2024-01-27T04:11:41;98436.88;;;14.35;39.87
30873;BME280;17579;42.690;2.586;2024-01-27T04:14:06;98432.56;;;14.34;39.72
30873;BME280;17579;42.690;2.586;2024-01-27T04:16:36;98424.00;;;14.30;39.95
30873;BME280;17579;42.690;2.586;2024-01-27T04:19:02;98431.00;;;14.31;40.11
30873;BME280;17579;42.690;2.586;2024-01-27T04:21:27;98425.81;;;14.30;39.98
30873;BME280;17579;42.690;2.586;2024-01-27T04:23:55;98428.34;;;14.31;40.07
30873;BME280;17579;42.690;2.586;2024-01-27T04:26:21;98420.34;;;14.31;39.90
30873;BME280;17579;42.690;2.586;2024-01-27T04:28:47;98426.22;;;14.35;40.33
30873;BME280;17579;42.690;2.586;2024-01-27T04:31:13;98414.47;;;14.37;39.99
30873;BME280;17579;42.690;2.586;2024-01-27T04:33:39;98416.97;;;14.39;40.08
30873;BME280;17579;42.690;2.586;2024-01-27T04:36:07;98420.50;;;14.40;39.93
30873;BME280;17579;42.690;2.586;2024-01-27T04:38:39;98420.50;;;14.40;39.52
30873;BME280;17579;42.690;2.586;2024-01-27T04:41:05;98424.13;;;14.38;39.50
30873;BME280;17579;42.690;2.586;2024-01-27T04:43:34;98420.75;;;14.36;39.64
30873;BME280;17579;42.690;2.586;2024-01-27T04:46:02;98426.09;;;14.36;39.59
30873;BME280;17579;42.690;2.586;2024-01-27T04:48:30;98421.75;;;14.35;39.30
30873;BME280;17579;42.690;2.586;2024-01-27T04:51:21;98421.47;;;14.19;39.65
30873;BME280;17579;42.690;2.586;2024-01-27T04:53:47;98420.06;;;14.25;39.65
30873;BME280;17579;42.690;2.586;2024-01-27T04:56:24;98420.06;;;14.15;39.74
30873;BME280;17579;42.690;2.586;2024-01-27T04:58:59;98420.19;;;14.13;39.83
30873;BME280;17579;42.690;2.586;2024-01-27T05:01:38;98417.53;;;14.13;39.70
30873;BME280;17579;42.690;2.586;2024-01-27T05:04:07;98415.44;;;14.07;39.44
30873;BME280;17579;42.690;2.586;2024-01-27T05:06:33;98417.66;;;14.02;39.60
30873;BME280;17579;42.690;2.586;2024-01-27T05:09:09;98428.59;;;13.99;40.05
30873;BME280;17579;42.690;2.586;2024-01-27T05:11:45;98425.78;;;13.91;39.90
30873;BME280;17579;42.690;2.586;2024-01-27T05:14:20;98426.47;;;13.83;39.92
30873;BME280;17579;42.690;2.586;2024-01-27T05:17:09;98425.34;;;13.85;39.76
30873;BME280;17579;42.690;2.586;2024-01-27T05:19:37;98419.19;;;13.75;40.13
30873;BME280;17579;42.690;2.586;2024-01-27T05:22:23;98424.31;;;13.67;40.10
30873;BME280;17579;42.690;2.586;2024-01-27T05:27:37;98424.06;;;13.70;40.07
30873;BME280;17579;42.690;2.586;2024-01-27T05:33:15;98430.34;;;13.69;40.02
30873;BME280;17579;42.690;2.586;2024-01-27T05:35:50;98432.44;;;13.65;40.16
30873;BME280;17579;42.690;2.586;2024-01-27T05:38:16;98440.59;;;13.74;39.92
30873;BME280;17579;42.690;2.586;2024-01-27T05:40:50;98434.41;;;13.73;39.64
30873;BME280;17579;42.690;2.586;2024-01-27T05:43:19;98429.97;;;13.83;39.35
30873;BME280;17579;42.690;2.586;2024-01-27T05:48:34;98446.22;;;13.90;39.18
30873;BME280;17579;42.690;2.586;2024-01-27T05:51:00;98438.66;;;13.85;39.09
30873;BME280;17579;42.690;2.586;2024-01-27T05:53:35;98434.72;;;13.80;39.46
30873;BME280;17579;42.690;2.586;2024-01-27T05:56:21;98433.06;;;13.89;38.92
30873;BME280;17579;42.690;2.586;2024-01-27T05:59:06;98440.72;;;13.82;39.41
30873;BME280;17579;42.690;2.586;2024-01-27T06:01:32;98444.28;;;13.92;38.94
30873;BME280;17579;42.690;2.586;2024-01-27T06:04:00;98450.56;;;13.91;38.87
30873;BME280;17579;42.690;2.586;2024-01-27T06:06:28;98447.19;;;13.89;38.72
30873;BME280;17579;42.690;2.586;2024-01-27T06:08:54;98446.78;;;13.94;38.84
30873;BME280;17579;42.690;2.586;2024-01-27T06:11:37;98452.25;;;13.92;38.84
30873;BME280;17579;42.690;2.586;2024-01-27T06:14:06;98448.72;;;13.92;39.03
30873;BME280;17579;42.690;2.586;2024-01-27T06:16:47;98448.19;;;13.88;39.05
30873;BME280;17579;42.690;2.586;2024-01-27T06:19:15;98456.16;;;13.88;39.13
30873;BME280;17579;42.690;2.586;2024-01-27T06:21:44;98462.72;;;13.84;38.93
30873;BME280;17579;42.690;2.586;2024-01-27T06:24:10;98460.75;;;13.86;38.97
30873;BME280;17579;42.690;2.586;2024-01-27T06:26:35;98466.94;;;13.86;39.15
30873;BME280;17579;42.690;2.586;2024-01-27T06:29:10;98466.66;;;13.90;38.81
30873;BME280;17579;42.690;2.586;2024-01-27T06:31:36;98461.63;;;13.86;39.22
30873;BME280;17579;42.690;2.586;2024-01-27T06:34:05;98470.56;;;13.85;39.06
30873;BME280;17579;42.690;2.586;2024-01-27T06:39:17;98477.44;;;13.88;39.06
30873;BME280;17579;42.690;2.586;2024-01-27T06:41:48;98469.59;;;13.86;39.25
30873;BME280;17579;42.690;2.586;2024-01-27T06:44:14;98468.59;;;13.88;39.16
30873;BME280;17579;42.690;2.586;2024-01-27T06:46:40;98467.63;;;13.89;38.96
30873;BME280;17579;42.690;2.586;2024-01-27T06:49:05;98475.75;;;13.87;39.03
30873;BME280;17579;42.690;2.586;2024-01-27T06:51:31;98475.88;;;13.85;39.08
30873;BME280;17579;42.690;2.586;2024-01-27T06:53:59;98483.72;;;13.87;38.87
30873;BME280;17579;42.690;2.586;2024-01-27T06:56:28;98483.03;;;13.85;39.16
30873;BME280;17579;42.690;2.586;2024-01-27T06:58:56;98483.28;;;13.82;38.81
30873;BME280;17579;42.690;2.586;2024-01-27T07:01:33;98483.03;;;13.85;38.83
30873;BME280;17579;42.690;2.586;2024-01-27T07:04:15;98477.25;;;13.80;39.03
30873;BME280;17579;42.690;2.586;2024-01-27T07:06:43;98475.28;;;13.82;39.04
30873;BME280;17579;42.690;2.586;2024-01-27T07:09:09;98482.44;;;13.81;38.84
30873;BME280;17579;42.690;2.586;2024-01-27T07:11:36;98483.00;;;13.75;38.60
30873;BME280;17579;42.690;2.586;2024-01-27T07:14:24;98491.09;;;13.74;38.66
30873;BME280;17579;42.690;2.586;2024-01-27T07:16:50;98486.91;;;13.71;38.64
30873;BME280;17579;42.690;2.586;2024-01-27T07:19:16;98481.72;;;13.69;38.72
30873;BME280;17579;42.690;2.586;2024-01-27T07:21:44;98482.69;;;13.68;38.55
30873;BME280;17579;42.690;2.586;2024-01-27T07:24:10;98487.88;;;13.70;38.66
30873;BME280;17579;42.690;2.586;2024-01-27T07:26:41;98484.66;;;13.66;38.60
30873;BME280;17579;42.690;2.586;2024-01-27T07:29:11;98486.91;;;13.71;38.65
30873;BME280;17579;42.690;2.586;2024-01-27T07:31:50;98488.59;;;13.72;38.51
30873;BME280;17579;42.690;2.586;2024-01-27T07:34:16;98488.31;;;13.75;38.49
30873;BME280;17579;42.690;2.586;2024-01-27T07:36:42;98493.22;;;13.80;38.63
30873;BME280;17579;42.690;2.586;2024-01-27T07:39:08;98493.81;;;13.83;38.63
30873;BME280;17579;42.690;2.586;2024-01-27T07:41:34;98494.34;;;13.87;38.60
30873;BME280;17579;42.690;2.586;2024-01-27T07:46:33;98500.81;;;13.94;38.48
30873;BME280;17579;42.690;2.586;2024-01-27T07:49:02;98502.09;;;14.00;38.58
30873;BME280;17579;42.690;2.586;2024-01-27T07:51:32;98497.47;;;14.02;38.41
30873;BME280;17579;42.690;2.586;2024-01-27T07:54:01;98503.94;;;14.09;38.64
30873;BME280;17579;42.690;2.586;2024-01-27T07:56:30;98500.00;;;14.13;38.46
30873;BME280;17579;42.690;2.586;2024-01-27T07:58:56;98505.66;;;14.20;38.52
30873;BME280;17579;42.690;2.586;2024-01-27T08:01:41;98505.78;;;14.18;38.67
30873;BME280;17579;42.690;2.586;2024-01-27T08:04:19;98501.16;;;14.30;38.36
30873;BME280;17579;42.690;2.586;2024-01-27T08:06:49;98497.25;;;14.34;38.42
30873;BME280;17579;42.690;2.586;2024-01-27T08:09:15;98493.34;;;14.38;38.32
30873;BME280;17579;42.690;2.586;2024-01-27T08:11:50;98496.00;;;14.38;38.05
30873;BME280;17579;42.690;2.586;2024-01-27T08:14:21;98483.69;;;14.47;38.01
30873;BME280;17579;42.690;2.586;2024-01-27T08:16:47;98489.56;;;14.51;38.04
30873;BME280;17579;42.690;2.586;2024-01-27T08:19:16;98493.47;;;14.56;38.05
30873;BME280;17579;42.690;2.586;2024-01-27T08:21:48;98487.66;;;14.63;38.10
30873;BME280;17579;42.690;2.586;2024-01-27T08:24:14;98489.06;;;14.67;37.82
30873;BME280;17579;42.690;2.586;2024-01-27T08:26:43;98486.78;;;14.72;38.34
30873;BME280;17579;42.690;2.586;2024-01-27T08:29:28;98490.56;;;14.79;37.53
30873;BME280;17579;42.690;2.586;2024-01-27T08:31:56;98490.00;;;14.85;37.41
30873;BME280;17579;42.690;2.586;2024-01-27T08:34:25;98487.59;;;14.92;37.58
30873;BME280;17579;42.690;2.586;2024-01-27T08:37:20;98489.44;;;14.72;37.59
30873;BME280;17579;42.690;2.586;2024-01-27T08:39:49;98485.34;;;15.07;36.95
30873;BME280;17579;42.690;2.586;2024-01-27T08:42:16;98492.59;;;15.24;36.21
30873;BME280;17579;42.690;2.586;2024-01-27T08:45:11;98495.38;;;15.33;37.02
30873;BME280;17579;42.690;2.586;2024-01-27T08:48:02;98489.03;;;15.44;36.92
30873;BME280;17579;42.690;2.586;2024-01-27T08:50:38;98494.56;;;15.60;36.05
30873;BME280;17579;42.690;2.586;2024-01-27T08:53:05;98501.00;;;15.67;35.30
30873;BME280;17579;42.690;2.586;2024-01-27T08:55:31;98496.06;;;15.72;35.62
30873;BME280;17579;42.690;2.586;2024-01-27T08:58:17;98497.63;;;15.75;36.30
30873;BME280;17579;42.690;2.586;2024-01-27T09:00:43;98504.59;;;15.86;35.51
30873;BME280;17579;42.690;2.586;2024-01-27T09:03:08;98498.84;;;15.90;35.43
30873;BME280;17579;42.690;2.586;2024-01-27T09:05:36;98506.69;;;15.92;35.53
30873;BME280;17579;42.690;2.586;2024-01-27T09:08:02;98498.25;;;15.97;35.75
30873;BME280;17579;42.690;2.586;2024-01-27T09:10:28;98502.50;;;16.07;35.92
30873;BME280;17579;42.690;2.586;2024-01-27T09:12:54;98498.25;;;16.15;35.70
30873;BME280;17579;42.690;2.586;2024-01-27T09:15:33;98503.84;;;16.21;35.90
30873;BME280;17579;42.690;2.586;2024-01-27T09:17:58;98507.75;;;16.27;35.43
30873;BME280;17579;42.690;2.586;2024-01-27T09:20:24;98504.47;;;16.33;35.14
30873;BME280;17579;42.690;2.586;2024-01-27T09:22:50;98501.22;;;16.39;35.01
30873;BME280;17579;42.690;2.586;2024-01-27T09:25:19;98503.78;;;16.49;35.20
30873;BME280;17579;42.690;2.586;2024-01-27T09:27:47;98495.50;;;16.52;34.79
30873;BME280;17579;42.690;2.586;2024-01-27T09:30:24;98507.53;;;16.56;35.22
30873;BME280;17579;42.690;2.586;2024-01-27T09:33:03;98501.59;;;16.62;35.21
30873;BME280;17579;42.690;2.586;2024-01-27T09:35:29;98499.84;;;16.71;34.38
30873;BME280;17579;42.690;2.586;2024-01-27T09:37:58;98503.03;;;16.75;34.94
30873;BME280;17579;42.690;2.586;2024-01-27T09:40:26;98502.66;;;16.88;33.87
30873;BME280;17579;42.690;2.586;2024-01-27T09:43:12;98501.38;;;16.92;34.50
30873;BME280;17579;42.690;2.586;2024-01-27T09:45:38;98503.47;;;17.06;33.89
30873;BME280;17579;42.690;2.586;2024-01-27T09:48:16;98499.88;;;17.16;33.25
30873;BME280;17579;42.690;2.586;2024-01-27T09:50:45;98503.78;;;17.29;32.82
30873;BME280;17579;42.690;2.586;2024-01-27T09:53:16;98498.81;;;17.35;32.29
30873;BME280;17579;42.690;2.586;2024-01-27T09:55:50;98502.75;;;17.48;31.58
30873;BME280;17579;42.690;2.586;2024-01-27T09:58:19;98499.59;;;17.53;30.52
30873;BME280;17579;42.690;2.586;2024-01-27T10:00:45;98502.78;;;17.57;30.64
30873;BME280;17579;42.690;2.586;2024-01-27T10:03:11;98511.03;;;17.63;29.70
30873;BME280;17579;42.690;2.586;2024-01-27T10:05:37;98514.25;;;17.67;29.25
30873;BME280;17579;42.690;2.586;2024-01-27T10:08:06;98512.22;;;17.69;30.34
30873;BME280;17579;42.690;2.586;2024-01-27T10:10:37;98512.06;;;17.71;31.15
30873;BME280;17579;42.690;2.586;2024-01-27T10:18:34;98517.06;;;17.92;30.77
30873;BME280;17579;42.690;2.586;2024-01-27T10:21:25;98509.69;;;17.94;31.27
30873;BME280;17579;42.690;2.586;2024-01-27T10:23:53;98508.25;;;18.08;31.53
30873;BME280;17579;42.690;2.586;2024-01-27T10:26:37;98516.59;;;18.13;31.75
30873;BME280;17579;42.690;2.586;2024-01-27T10:29:23;98514.59;;;18.07;32.54
30873;BME280;17579;42.690;2.586;2024-01-27T10:31:54;98522.16;;;18.20;32.19
30873;BME280;17579;42.690;2.586;2024-01-27T10:34:20;98519.31;;;18.21;31.84
30873;BME280;17579;42.690;2.586;2024-01-27T10:36:46;98520.00;;;18.23;31.99
30873;BME280;17579;42.690;2.586;2024-01-27T10:39:15;98523.88;;;18.29;32.34
30873;BME280;17579;42.690;2.586;2024-01-27T10:41:46;98524.03;;;18.35;32.00
30873;BME280;17579;42.690;2.586;2024-01-27T10:44:15;98522.22;;;18.36;32.33
30873;BME280;17579;42.690;2.586;2024-01-27T10:46:45;98508.84;;;18.36;32.69
30873;BME280;17579;42.690;2.586;2024-01-27T10:49:13;98511.00;;;18.41;32.50
30873;BME280;17579;42.690;2.586;2024-01-27T10:51:45;98512.19;;;18.46;32.60
30873;BME280;17579;42.690;2.586;2024-01-27T10:54:23;98506.84;;;18.46;32.88
30873;BME280;17579;42.690;2.586;2024-01-27T10:56:53;98507.84;;;18.53;32.62
30873;BME280;17579;42.690;2.586;2024-01-27T10:59:30;98506.69;;;18.56;32.50
30873;BME280;17579;42.690;2.586;2024-01-27T11:01:57;98504.34;;;18.69;32.31
30873;BME280;17579;42.690;2.586;2024-01-27T11:04:28;98504.19;;;18.71;32.53
30873;BME280;17579;42.690;2.586;2024-01-27T11:07:00;98495.28;;;18.79;32.58
30873;BME280;17579;42.690;2.586;2024-01-27T11:09:36;98494.66;;;18.85;32.52
30873;BME280;17579;42.690;2.586;2024-01-27T11:12:31;98492.28;;;18.82;32.92
30873;BME280;17579;42.690;2.586;2024-01-27T11:14:57;98488.31;;;18.94;32.59
30873;BME280;17579;42.690;2.586;2024-01-27T11:20:07;98477.22;;;18.97;33.05
30873;BME280;17579;42.690;2.586;2024-01-27T11:22:44;98478.22;;;19.04;32.78
30873;BME280;17579;42.690;2.586;2024-01-27T11:30:31;98463.66;;;19.15;33.04
30873;BME280;17579;42.690;2.586;2024-01-27T11:33:01;98474.84;;;19.27;32.84
30873;BME280;17579;42.690;2.586;2024-01-27T11:35:34;98462.94;;;19.30;32.92
30873;BME280;17579;42.690;2.586;2024-01-27T11:38:03;98460.91;;;19.32;32.56
30873;BME280;17579;42.690;2.586;2024-01-27T11:43:11;98463.59;;;19.40;33.13
30873;BME280;17579;42.690;2.586;2024-01-27T11:45:54;98448.81;;;19.52;33.00
30873;BME280;17579;42.690;2.586;2024-01-27T11:48:44;98446.78;;;19.54;32.81
30873;BME280;17579;42.690;2.586;2024-01-27T11:51:15;98443.38;;;19.61;32.76
30873;BME280;17579;42.690;2.586;2024-01-27T11:53:41;98439.69;;;19.70;32.87
30873;BME280;17579;42.690;2.586;2024-01-27T11:56:10;98437.16;;;19.68;32.87
30873;BME280;17579;42.690;2.586;2024-01-27T11:58:46;98432.81;;;19.67;32.87
30873;BME280;17579;42.690;2.586;2024-01-27T12:01:23;98429.59;;;19.72;32.63
30873;BME280;17579;42.690;2.586;2024-01-27T12:04:12;98428.75;;;19.80;32.60
30873;BME280;17579;42.690;2.586;2024-01-27T12:06:39;98425.22;;;19.71;33.03
30873;BME280;17579;42.690;2.586;2024-01-27T12:09:12;98430.75;;;19.78;32.83
30873;BME280;17579;42.690;2.586;2024-01-27T12:11:39;98418.81;;;19.88;33.11
30873;BME280;17579;42.690;2.586;2024-01-27T12:14:09;98412.78;;;19.86;33.02
30873;BME280;17579;42.690;2.586;2024-01-27T12:16:38;98419.84;;;19.79;33.19
30873;BME280;17579;42.690;2.586;2024-01-27T12:19:32;98418.66;;;19.73;33.20
30873;BME280;17579;42.690;2.586;2024-01-27T12:22:02;98416.84;;;19.74;33.74
30873;BME280;17579;42.690;2.586;2024-01-27T12:24:28;98411.63;;;19.81;33.40
30873;BME280;17579;42.690;2.586;2024-01-27T12:27:04;98406.75;;;19.76;33.76
30873;BME280;17579;42.690;2.586;2024-01-27T12:29:36;98414.16;;;19.74;34.18
30873;BME280;17579;42.690;2.586;2024-01-27T12:32:07;98408.28;;;19.70;34.41
30873;BME280;17579;42.690;2.586;2024-01-27T12:34:40;98403.28;;;19.67;34.09
30873;BME280;17579;42.690;2.586;2024-01-27T12:37:15;98402.78;;;19.64;34.33
30873;BME280;17579;42.690;2.586;2024-01-27T12:39:44;98396.75;;;19.62;34.87
30873;BME280;17579;42.690;2.586;2024-01-27T12:42:10;98389.34;;;19.64;35.28
30873;BME280;17579;42.690;2.586;2024-01-27T12:44:37;98391.06;;;19.56;35.46
30873;BME280;17579;42.690;2.586;2024-01-27T12:47:05;98387.22;;;19.59;36.09
30873;BME280;17579;42.690;2.586;2024-01-27T12:50:09;98381.53;;;19.54;35.82
30873;BME280;17579;42.690;2.586;2024-01-27T12:52:44;98385.03;;;19.63;36.07
30873;BME280;17579;42.690;2.586;2024-01-27T12:55:09;98371.78;;;19.61;36.35
30873;BME280;17579;42.690;2.586;2024-01-27T12:57:35;98372.94;;;19.67;36.17
30873;BME280;17579;42.690;2.586;2024-01-27T13:00:21;98364.44;;;19.78;36.03
30873;BME280;17579;42.690;2.586;2024-01-27T13:02:53;98369.81;;;19.78;36.46
30873;BME280;17579;42.690;2.586;2024-01-27T13:05:21;98364.81;;;19.83;36.77
30873;BME280;17579;42.690;2.586;2024-01-27T13:08:10;98361.13;;;19.84;36.12
30873;BME280;17579;42.690;2.586;2024-01-27T13:10:41;98352.28;;;19.99;36.68
30873;BME280;17579;42.690;2.586;2024-01-27T13:13:10;98348.25;;;20.03;36.22
30873;BME280;17579;42.690;2.586;2024-01-27T13:15:36;98345.00;;;20.07;36.89
30873;BME280;17579;42.690;2.586;2024-01-27T13:18:02;98351.69;;;20.12;36.54
30873;BME280;17579;42.690;2.586;2024-01-27T13:20:28;98337.91;;;20.15;36.63
30873;BME280;17579;42.690;2.586;2024-01-27T13:22:56;98335.88;;;20.17;36.51
30873;BME280;17579;42.690;2.586;2024-01-27T13:25:24;98341.22;;;20.17;36.66
30873;BME280;17579;42.690;2.586;2024-01-27T13:27:53;98338.19;;;20.20;36.43
30873;BME280;17579;42.690;2.586;2024-01-27T13:30:26;98333.19;;;20.17;36.55
30873;BME280;17579;42.690;2.586;2024-01-27T13:32:54;98326.50;;;20.13;36.72
30873;BME280;17579;42.690;2.586;2024-01-27T13:35:20;98325.66;;;20.12;36.85
30873;BME280;17579;42.690;2.586;2024-01-27T13:37:46;98325.38;;;20.07;36.91
30873;BME280;17579;42.690;2.586;2024-01-27T13:40:19;98321.84;;;20.06;37.30
30873;BME280;17579;42.690;2.586;2024-01-27T13:42:51;98312.59;;;20.09;37.46
30873;BME280;17579;42.690;2.586;2024-01-27T13:45:21;98308.53;;;20.13;37.74
30873;BME280;17579;42.690;2.586;2024-01-27T13:50:42;98299.34;;;20.07;37.72
30873;BME280;17579;42.690;2.586;2024-01-27T13:53:28;98298.53;;;20.07;37.63
30873;BME280;17579;42.690;2.586;2024-01-27T13:56:00;98292.78;;;20.10;38.08